Time;durP1;ratioP1;P1;durP2;ratioP2;P2;SDS_P1;SDS_P2;PMS_P1;PMS_P2;Temp;Humidity;BMP_temperature;BMP_pressure;BME280_temperature;BME280_humidity;BME280_pressure;Samples;Min_cycle;Max_cycle;Signal;HPM_P1;HPM_P2
2022/11/06 00:00:30;;;;;;;2.20;2.10;;;8.70;99.90;;;;;;5035378;28;20205;-85
2022/11/06 00:02:58;;;;;;;1.83;1.83;;;8.70;99.90;;;;;;5036075;28;20182;-82
2022/11/06 00:08:09;;;;;;;1.63;1.63;;;8.80;99.90;;;;;;5036547;28;20179;-90
2022/11/06 00:10:34;;;;;;;2.00;1.90;;;8.70;99.90;;;;;;5036022;28;20169;-91
2022/11/06 00:13:00;;;;;;;2.37;2.03;;;8.70;99.90;;;;;;5035890;28;20200;-83
2022/11/06 00:15:26;;;;;;;1.80;1.70;;;8.70;99.90;;;;;;5035868;28;20226;-90
2022/11/06 00:17:52;;;;;;;1.87;1.77;;;8.70;99.90;;;;;;5035455;28;20184;-86
2022/11/06 00:20:18;;;;;;;1.97;1.87;;;8.70;99.90;;;;;;5017889;28;20179;-80
2022/11/06 00:22:44;;;;;;;1.93;1.83;;;8.70;99.90;;;;;;5034692;28;20172;-79
2022/11/06 00:25:11;;;;;;;2.10;2.00;;;8.60;99.90;;;;;;5017456;28;20169;-79
2022/11/06 00:27:38;;;;;;;1.90;1.80;;;8.60;99.90;;;;;;5034366;28;20669;-80
2022/11/06 00:30:08;;;;;;;1.80;1.70;;;8.60;99.90;;;;;;5012626;28;20224;-80
2022/11/06 00:32:34;;;;;;;1.90;1.80;;;8.60;99.90;;;;;;5014286;28;20230;-80
2022/11/06 00:35:00;;;;;;;4.97;2.00;;;8.60;99.90;;;;;;5014636;28;20169;-89
2022/11/06 00:37:26;;;;;;;1.90;1.80;;;8.50;99.90;;;;;;5016108;28;20184;-88
2022/11/06 00:39:51;;;;;;;1.70;1.70;;;8.60;99.90;;;;;;5013948;28;20178;-88
2022/11/06 00:42:17;;;;;;;1.73;1.63;;;8.60;99.90;;;;;;5015058;28;20178;-86
2022/11/06 00:44:43;;;;;;;1.77;1.67;;;8.70;99.90;;;;;;5015287;28;20177;-84
2022/11/06 00:47:09;;;;;;;1.90;1.80;;;8.70;99.90;;;;;;5023450;28;20184;-85
2022/11/06 00:49:35;;;;;;;1.80;1.70;;;8.70;99.90;;;;;;5021145;28;20515;-81
2022/11/06 00:52:01;;;;;;;2.47;1.67;;;8.80;99.90;;;;;;5025324;28;20205;-89
2022/11/06 00:54:26;;;;;;;1.67;1.57;;;8.80;99.90;;;;;;5037522;28;20167;-85
2022/11/06 00:56:52;;;;;;;2.10;1.53;;;8.70;99.90;;;;;;5021697;28;20188;-88
2022/11/06 00:59:18;;;;;;;1.70;1.60;;;8.80;99.90;;;;;;5018121;28;20173;-86
2022/11/06 01:01:45;;;;;;;1.90;1.43;;;8.70;99.90;;;;;;5024333;28;20175;-84
2022/11/06 01:04:13;;;;;;;1.77;1.67;;;8.70;99.90;;;;;;5024054;28;20607;-83
2022/11/06 01:06:42;;;;;;;2.10;1.70;;;8.70;99.90;;;;;;5022872;28;20181;-86
2022/11/06 01:09:12;;;;;;;1.93;1.83;;;8.70;99.90;;;;;;5015958;28;20185;-85
2022/11/06 01:11:47;;;;;;;3.37;1.80;;;8.70;99.90;;;;;;5014989;28;20201;-88
2022/11/06 01:14:15;;;;;;;2.00;1.80;;;8.60;99.90;;;;;;5013005;28;20197;-89
2022/11/06 01:16:40;;;;;;;2.00;1.90;;;8.50;99.90;;;;;;5014993;28;20173;-86
2022/11/06 01:19:06;;;;;;;2.00;1.90;;;8.30;99.90;;;;;;5014970;28;20169;-80
2022/11/06 01:21:35;;;;;;;2.73;1.70;;;8.10;99.90;;;;;;5015657;28;20251;-84
2022/11/06 01:24:11;;;;;;;1.70;1.60;;;8.10;99.90;;;;;;5017912;28;20177;-87
2022/11/06 01:26:37;;;;;;;1.60;1.50;;;8.20;99.90;;;;;;5016016;28;20165;-85
2022/11/06 01:29:05;;;;;;;2.27;1.70;;;8.20;99.90;;;;;;5019794;28;20282;-87
2022/11/06 01:31:32;;;;;;;1.23;1.23;;;8.30;99.90;;;;;;5014226;28;20238;-85
2022/11/06 01:34:00;;;;;;;1.50;1.40;;;8.40;99.90;;;;;;5015161;28;20173;-90
2022/11/06 01:36:27;;;;;;;1.40;1.30;;;8.30;99.90;;;;;;5021762;28;20656;-80
2022/11/06 01:38:55;;;;;;;1.60;1.50;;;8.40;99.90;;;;;;5029004;28;20176;-79
2022/11/06 01:41:24;;;;;;;1.50;1.40;;;8.40;99.90;;;;;;5025868;28;20320;-79
2022/11/06 01:43:53;;;;;;;1.50;1.50;;;8.50;99.90;;;;;;5026395;28;20173;-81
2022/11/06 01:46:21;;;;;;;1.33;1.33;;;8.50;99.90;;;;;;5024881;28;20200;-79
2022/11/06 01:48:53;;;;;;;1.57;1.47;;;8.50;99.90;;;;;;5019497;28;20173;-81
2022/11/06 01:51:23;;;;;;;1.30;1.30;;;8.60;99.90;;;;;;5019469;28;20260;-81
2022/11/06 01:53:50;;;;;;;1.30;1.30;;;8.70;99.90;;;;;;5015940;28;20178;-84
2022/11/06 01:56:17;;;;;;;1.17;1.17;;;8.70;99.90;;;;;;5014560;28;20173;-85
2022/11/06 01:58:45;;;;;;;1.90;1.80;;;8.70;99.90;;;;;;5012992;28;20260;-81
2022/11/06 02:01:11;;;;;;;1.57;1.57;;;8.70;99.90;;;;;;5014402;28;20220;-83
2022/11/06 02:03:41;;;;;;;1.63;1.53;;;8.70;99.90;;;;;;5013963;28;20173;-80
2022/11/06 02:06:08;;;;;;;3.03;1.90;;;8.60;99.90;;;;;;5012390;28;20591;-82
2022/11/06 02:08:34;;;;;;;2.60;2.40;;;8.60;99.90;;;;;;5014005;28;20202;-82
2022/11/06 02:11:01;;;;;;;3.90;3.00;;;8.50;99.90;;;;;;5013594;28;20180;-84
2022/11/06 02:13:50;;;;;;;2.13;2.03;;;8.30;99.90;;;;;;5013626;28;20691;-81
2022/11/06 02:16:25;;;;;;;2.10;2.00;;;8.20;99.90;;;;;;5014269;28;20244;-88
2022/11/06 02:19:16;;;;;;;1.90;1.80;;;8.10;99.90;;;;;;5014994;28;20180;-87
2022/11/06 02:22:01;;;;;;;1.47;1.47;;;8.00;99.90;;;;;;4980178;28;20193;-86
2022/11/06 02:24:45;;;;;;;2.40;2.30;;;8.00;99.90;;;;;;5015113;28;20188;-83
2022/11/06 02:27:23;;;;;;;2.93;2.73;;;8.00;99.90;;;;;;5028891;28;20705;-89
2022/11/06 02:30:09;;;;;;;2.70;2.50;;;7.90;99.90;;;;;;5035591;28;20239;-82
2022/11/06 02:32:41;;;;;;;2.80;2.60;;;7.90;99.90;;;;;;5020377;28;20217;-89
2022/11/06 02:35:19;;;;;;;2.77;2.57;;;7.80;99.90;;;;;;5013934;28;20176;-89
2022/11/06 02:37:47;;;;;;;2.80;2.63;;;7.60;99.90;;;;;;5014746;28;20165;-90
2022/11/06 02:40:15;;;;;;;3.00;2.80;;;7.60;99.90;;;;;;5018537;28;20203;-89
2022/11/06 02:42:45;;;;;;;2.70;2.50;;;7.50;99.90;;;;;;5026026;28;20188;-88
2022/11/06 02:45:16;;;;;;;2.83;2.57;;;7.40;99.90;;;;;;5027745;28;20183;-89
2022/11/06 02:47:45;;;;;;;2.90;2.20;;;7.50;99.90;;;;;;5019420;28;20308;-84
2022/11/06 02:50:24;;;;;;;2.60;2.40;;;7.50;99.90;;;;;;5017331;28;20587;-87
2022/11/06 02:52:57;;;;;;;2.67;2.47;;;7.50;99.90;;;;;;5017770;28;20558;-90
2022/11/06 02:55:52;;;;;;;5.60;2.70;;;7.40;99.90;;;;;;5018035;28;20171;-87
2022/11/06 02:58:37;;;;;;;2.30;2.10;;;7.30;99.90;;;;;;5017108;28;20251;-88
2022/11/06 03:01:19;;;;;;;2.23;2.03;;;7.20;99.90;;;;;;5018084;28;20165;-90
2022/11/06 03:03:51;;;;;;;2.33;2.13;;;7.20;99.90;;;;;;5019586;28;20173;-86
2022/11/06 03:06:37;;;;;;;2.20;2.10;;;7.00;99.90;;;;;;5015916;28;20251;-81
2022/11/06 03:09:11;;;;;;;2.77;2.57;;;6.90;99.90;;;;;;5017404;28;20173;-86
2022/11/06 03:11:38;;;;;;;2.57;2.37;;;6.80;99.90;;;;;;5015532;28;20298;-79
2022/11/06 03:14:33;;;;;;;3.30;3.00;;;6.90;99.90;;;;;;5023036;28;20181;-83
2022/11/06 03:17:02;;;;;;;2.23;2.10;;;6.90;99.90;;;;;;5019940;28;20161;-84
2022/11/06 03:20:00;;;;;;;2.40;2.20;;;6.80;99.90;;;;;;5017126;28;20173;-81
2022/11/06 03:22:39;;;;;;;2.33;2.13;;;6.80;99.90;;;;;;5016878;28;20615;-84
2022/11/06 03:25:17;;;;;;;2.20;2.00;;;6.80;99.90;;;;;;5016903;28;20242;-86
2022/11/06 03:28:07;;;;;;;2.10;1.80;;;6.70;99.90;;;;;;5019253;28;20196;-85
2022/11/06 03:30:39;;;;;;;2.23;2.10;;;6.60;99.90;;;;;;5025670;28;20199;-80
2022/11/06 03:33:23;;;;;;;2.20;2.17;;;6.60;99.90;;;;;;5018093;28;20751;-90
2022/11/06 03:36:18;;;;;;;2.30;2.10;;;6.60;99.90;;;;;;5017093;28;20208;-85
2022/11/06 03:39:18;;;;;;;2.33;2.17;;;6.50;99.90;;;;;;5017570;28;20173;-90
2022/11/06 03:41:53;;;;;;;2.27;2.17;;;6.50;99.90;;;;;;5016765;28;20179;-87
2022/11/06 03:44:23;;;;;;;2.37;2.17;;;6.40;99.90;;;;;;5016903;28;20508;-84
2022/11/06 03:47:16;;;;;;;2.03;1.93;;;6.50;99.90;;;;;;5016548;28;20692;-86
2022/11/06 03:49:48;;;;;;;2.37;2.17;;;6.40;99.90;;;;;;4980141;28;20179;-89
2022/11/06 03:52:32;;;;;;;2.37;2.17;;;6.50;99.90;;;;;;5015573;28;20208;-87
2022/11/06 03:55:21;;;;;;;1.60;1.60;;;6.30;99.90;;;;;;5016892;28;20287;-86
2022/11/06 03:58:03;;;;;;;2.03;1.83;;;6.10;99.90;;;;;;5020698;28;20168;-86
2022/11/06 04:00:32;;;;;;;1.70;1.70;;;6.10;99.90;;;;;;5029101;28;20160;-81
2022/11/06 04:03:04;;;;;;;2.07;1.87;;;6.10;99.90;;;;;;5028504;28;20201;-86
2022/11/06 04:06:04;;;;;;;1.83;1.73;;;6.20;99.90;;;;;;5038656;28;20171;-79
2022/11/06 04:14:06;;;;;;;2.00;1.90;;;6.10;99.90;;;;;;5030062;28;20671;-86
2022/11/06 04:16:42;;;;;;;1.93;1.80;;;6.10;99.90;;;;;;5020778;28;20186;-88
2022/11/06 04:19:19;;;;;;;1.90;1.80;;;6.20;99.90;;;;;;5022985;28;20172;-84
2022/11/06 04:22:22;;;;;;;2.27;2.17;;;6.10;99.90;;;;;;5020253;28;20585;-82
2022/11/06 04:28:08;;;;;;;2.83;1.80;;;6.00;99.90;;;;;;5021448;28;20166;-87
2022/11/06 04:30:45;;;;;;;1.97;1.77;;;6.00;99.90;;;;;;5015116;28;20191;-85
2022/11/06 04:33:40;;;;;;;2.00;1.90;;;6.00;99.90;;;;;;5015644;28;20193;-86
2022/11/06 04:36:38;;;;;;;2.33;2.13;;;5.90;99.90;;;;;;5015116;28;20187;-87
2022/11/06 04:39:08;;;;;;;2.10;2.00;;;5.90;99.90;;;;;;5011203;28;20170;-84
2022/11/06 04:41:58;;;;;;;2.10;2.00;;;5.90;99.90;;;;;;5014778;28;20162;-82
2022/11/06 04:44:37;;;;;;;2.37;2.27;;;5.90;99.90;;;;;;5011428;28;20224;-84
2022/11/06 04:47:16;;;;;;;5.17;2.23;;;5.80;99.90;;;;;;5014690;28;20167;-82
2022/11/06 04:49:43;;;;;;;2.20;2.10;;;5.70;99.90;;;;;;5015161;28;20688;-82
2022/11/06 04:52:14;;;;;;;2.30;2.20;;;5.70;99.90;;;;;;5015188;28;20200;-88
2022/11/06 04:54:41;;;;;;;2.30;2.20;;;5.60;99.90;;;;;;5015765;28;20204;-88
2022/11/06 04:57:06;;;;;;;2.80;2.40;;;5.60;99.90;;;;;;5014656;28;20291;-89
2022/11/06 04:59:36;;;;;;;2.60;2.50;;;5.60;99.90;;;;;;5013400;28;20268;-84
2022/11/06 05:02:02;;;;;;;2.60;2.20;;;5.60;99.90;;;;;;5010348;28;20212;-80
2022/11/06 05:04:28;;;;;;;2.63;2.53;;;5.60;99.90;;;;;;5014321;28;20182;-86
2022/11/06 05:06:55;;;;;;;2.33;2.17;;;5.60;99.90;;;;;;5015843;28;20187;-86
2022/11/06 05:09:20;;;;;;;2.23;2.13;;;5.50;99.90;;;;;;5015916;28;20264;-80
2022/11/06 05:11:46;;;;;;;2.67;2.57;;;5.50;99.90;;;;;;5014445;28;20297;-81
2022/11/06 05:14:12;;;;;;;2.77;1.83;;;5.50;99.90;;;;;;5014250;28;20235;-79
2022/11/06 05:16:38;;;;;;;2.23;2.13;;;5.50;99.90;;;;;;5014593;28;20179;-79
2022/11/06 05:19:04;;;;;;;2.40;2.17;;;5.60;99.90;;;;;;5014071;28;20170;-79
2022/11/06 05:24:14;;;;;;;2.70;2.50;;;5.70;99.90;;;;;;5001065;28;20173;-89
2022/11/06 05:26:39;;;;;;;2.30;2.20;;;5.60;99.90;;;;;;5001613;28;20177;-83
2022/11/06 05:29:05;;;;;;;2.37;2.27;;;5.50;99.90;;;;;;5011067;28;20221;-88
2022/11/06 05:31:31;;;;;;;2.63;2.33;;;5.40;99.90;;;;;;5020609;28;20182;-85
2022/11/06 05:33:58;;;;;;;2.33;2.23;;;5.40;99.90;;;;;;5023022;28;20275;-81
2022/11/06 05:36:24;;;;;;;2.23;2.13;;;5.40;99.90;;;;;;5015672;28;20601;-89
2022/11/06 05:38:50;;;;;;;2.20;2.10;;;5.40;99.90;;;;;;5033873;28;20244;-90
2022/11/06 05:41:16;;;;;;;2.10;2.00;;;5.40;99.90;;;;;;5052142;28;20184;-90
2022/11/06 05:43:42;;;;;;;2.13;1.73;;;5.40;99.90;;;;;;5049687;28;20182;-88
2022/11/06 05:46:08;;;;;;;2.20;2.10;;;5.50;99.90;;;;;;5035727;28;20664;-88
2022/11/06 05:48:34;;;;;;;2.40;2.20;;;5.50;99.90;;;;;;5035421;28;20168;-84
2022/11/06 05:51:04;;;;;;;2.27;2.17;;;5.50;99.90;;;;;;5035100;28;20175;-82
2022/11/06 05:53:32;;;;;;;2.33;2.20;;;5.50;99.90;;;;;;5033186;28;20221;-84
2022/11/06 05:55:58;;;;;;;2.00;1.90;;;5.50;99.90;;;;;;5034737;28;20185;-80
2022/11/06 05:58:24;;;;;;;2.63;2.07;;;5.50;99.90;;;;;;5041588;28;20184;-82
2022/11/06 06:00:49;;;;;;;2.33;2.20;;;5.50;99.90;;;;;;5036556;28;20190;-83
2022/11/06 06:03:17;;;;;;;2.33;2.23;;;5.50;99.90;;;;;;5033326;28;20711;-86
2022/11/06 06:05:42;;;;;;;2.53;2.20;;;5.50;99.90;;;;;;5036359;28;20276;-81
2022/11/06 06:08:08;;;;;;;2.47;2.37;;;5.50;99.90;;;;;;5024484;28;20196;-80
2022/11/06 06:10:34;;;;;;;2.40;2.20;;;5.50;99.90;;;;;;5022690;28;20187;-79
2022/11/06 06:12:59;;;;;;;2.30;2.20;;;5.50;99.90;;;;;;5040940;28;20216;-82
2022/11/06 06:15:25;;;;;;;2.33;2.20;;;5.50;99.90;;;;;;5046563;28;20510;-81
2022/11/06 06:17:51;;;;;;;2.57;2.37;;;5.50;99.90;;;;;;5049582;28;20541;-81
2022/11/06 06:20:17;;;;;;;2.53;2.33;;;5.50;99.90;;;;;;5047581;28;20219;-81
2022/11/06 06:22:42;;;;;;;2.17;2.07;;;5.50;99.90;;;;;;5039153;28;20187;-81
2022/11/06 06:25:08;;;;;;;2.80;2.60;;;5.50;99.90;;;;;;5039920;28;20186;-84
2022/11/06 06:27:37;;;;;;;3.53;3.30;;;5.50;99.90;;;;;;5038503;28;20645;-86
2022/11/06 06:30:03;;;;;;;2.90;2.70;;;5.50;99.90;;;;;;5038946;28;20329;-82
2022/11/06 06:32:29;;;;;;;2.57;2.37;;;5.50;99.90;;;;;;5020040;28;20208;-82
2022/11/06 06:34:55;;;;;;;2.43;2.27;;;5.50;99.90;;;;;;5039014;28;20173;-86
2022/11/06 06:37:21;;;;;;;2.60;2.50;;;5.60;99.90;;;;;;5038837;28;20183;-81
2022/11/06 06:39:46;;;;;;;2.60;2.40;;;5.60;99.90;;;;;;5021730;28;20177;-86
2022/11/06 06:42:12;;;;;;;2.40;2.30;;;5.60;99.90;;;;;;5039584;28;20191;-81
2022/11/06 06:44:38;;;;;;;2.47;2.37;;;5.70;99.90;;;;;;5013243;28;20187;-87
2022/11/06 06:47:04;;;;;;;2.30;2.20;;;5.80;99.90;;;;;;5040333;28;20230;-85
2022/11/06 06:49:29;;;;;;;2.80;2.60;;;5.70;99.90;;;;;;5038685;28;20220;-88
2022/11/06 06:51:55;;;;;;;2.30;2.20;;;5.70;99.90;;;;;;5040626;28;20275;-83
2022/11/06 06:54:21;;;;;;;2.40;2.30;;;5.80;99.90;;;;;;5038979;28;20236;-90
2022/11/06 06:56:47;;;;;;;2.60;2.30;;;5.80;99.90;;;;;;5036375;28;20194;-85
2022/11/06 06:59:13;;;;;;;3.17;2.70;;;5.80;99.90;;;;;;5018906;28;20212;-78
2022/11/06 07:01:38;;;;;;;2.40;2.30;;;5.90;99.90;;;;;;5036740;28;20668;-89
2022/11/06 07:04:05;;;;;;;2.80;2.60;;;5.90;99.90;;;;;;5022281;28;20176;-85
2022/11/06 07:06:31;;;;;;;2.57;2.47;;;6.00;99.90;;;;;;5039860;28;20178;-85
2022/11/06 07:08:57;;;;;;;2.97;2.77;;;6.00;99.90;;;;;;5038461;28;20175;-86
2022/11/06 07:11:23;;;;;;;5.60;2.70;;;6.00;99.90;;;;;;5039364;28;20688;-88
2022/11/06 07:13:52;;;;;;;4.67;2.53;;;6.00;99.90;;;;;;5019126;28;20183;-89
2022/11/06 07:16:20;;;;;;;2.73;2.57;;;6.00;99.90;;;;;;5046497;28;20176;-87
2022/11/06 07:18:46;;;;;;;2.63;2.43;;;6.10;99.90;;;;;;5014793;28;20205;-90
2022/11/06 07:21:12;;;;;;;2.43;2.33;;;6.10;99.90;;;;;;5049085;28;20614;-90
2022/11/06 07:23:38;;;;;;;2.50;2.30;;;6.10;99.90;;;;;;5042211;28;20172;-90
2022/11/06 07:26:05;;;;;;;2.77;2.60;;;6.10;99.90;;;;;;5031091;28;20237;-89
2022/11/06 07:28:31;;;;;;;2.73;2.57;;;6.10;99.90;;;;;;5024747;28;20650;-85
2022/11/06 07:31:01;;;;;;;2.90;2.70;;;6.20;99.90;;;;;;5029670;28;20180;-87
2022/11/06 07:33:27;;;;;;;3.50;3.00;;;6.20;99.90;;;;;;5029689;28;20210;-86
2022/11/06 07:35:53;;;;;;;3.23;3.00;;;6.30;99.90;;;;;;5028603;28;20190;-90
2022/11/06 07:38:19;;;;;;;3.53;3.23;;;6.30;99.90;;;;;;5005239;28;20192;-87
2022/11/06 07:40:44;;;;;;;3.13;2.93;;;6.30;99.90;;;;;;5015323;28;20293;-87
2022/11/06 07:43:10;;;;;;;3.53;3.23;;;6.30;99.90;;;;;;5041057;28;20181;-87
2022/11/06 07:45:38;;;;;;;3.67;3.47;;;6.40;99.90;;;;;;5037053;28;20185;-89
2022/11/06 07:48:05;;;;;;;3.70;3.40;;;6.50;99.90;;;;;;5037139;28;20576;-89
2022/11/06 07:50:31;;;;;;;2.60;2.50;;;6.50;99.90;;;;;;5037253;28;20213;-91
2022/11/06 07:52:57;;;;;;;3.10;2.90;;;6.50;99.90;;;;;;5023415;28;20215;-92
2022/11/06 07:55:23;;;;;;;5.47;3.33;;;6.50;99.90;;;;;;5021826;28;20178;-95
2022/11/06 07:57:48;;;;;;;3.17;2.97;;;6.60;99.90;;;;;;5040879;28;20180;-94
2022/11/06 08:00:15;;;;;;;3.03;2.87;;;6.70;99.90;;;;;;5029321;28;20201;-95
2022/11/06 08:02:41;;;;;;;2.83;2.43;;;6.80;99.90;;;;;;5025716;28;20279;-88
2022/11/06 08:05:07;;;;;;;3.40;3.10;;;6.90;99.90;;;;;;5042336;28;20211;-88
2022/11/06 08:07:33;;;;;;;3.53;2.67;;;6.90;99.90;;;;;;5046398;28;20198;-90
2022/11/06 08:10:00;;;;;;;3.00;2.80;;;6.90;99.90;;;;;;5027553;28;20547;-94
2022/11/06 08:12:27;;;;;;;3.10;2.93;;;7.00;99.90;;;;;;5024202;28;20214;-95
2022/11/06 08:14:53;;;;;;;3.57;3.23;;;7.10;99.90;;;;;;5003583;28;20185;-94
2022/11/06 08:17:18;;;;;;;3.37;3.03;;;7.10;99.90;;;;;;5002083;28;20220;-92
2022/11/06 08:19:44;;;;;;;3.40;3.10;;;7.20;99.90;;;;;;5018253;28;20196;-92
2022/11/06 08:22:10;;;;;;;3.57;3.27;;;7.30;99.90;;;;;;5019250;28;20187;-95
2022/11/06 08:24:36;;;;;;;3.40;3.10;;;7.30;99.90;;;;;;5020803;28;20183;-89
2022/11/06 08:27:02;;;;;;;3.17;2.87;;;7.40;99.90;;;;;;5037247;28;20188;-89
2022/11/06 08:29:28;;;;;;;3.30;2.97;;;7.50;99.90;;;;;;5018670;28;20238;-90
2022/11/06 08:31:54;;;;;;;3.57;3.27;;;7.70;99.90;;;;;;5037343;28;20555;-90
2022/11/06 08:34:20;;;;;;;3.60;3.30;;;7.70;99.90;;;;;;5040015;28;20180;-92
2022/11/06 08:36:48;;;;;;;3.20;3.00;;;7.80;99.90;;;;;;5029238;28;20206;-85
2022/11/06 08:39:15;;;;;;;3.37;3.03;;;8.00;99.90;;;;;;5029395;28;20180;-93
2022/11/06 08:41:44;;;;;;;3.00;2.80;;;8.00;99.90;;;;;;5045017;28;20275;-84
2022/11/06 08:44:12;;;;;;;3.90;2.73;;;8.20;99.90;;;;;;5042213;28;20176;-95
2022/11/06 08:46:38;;;;;;;3.50;3.20;;;8.20;99.90;;;;;;5023195;28;20212;-89
2022/11/06 08:49:04;;;;;;;3.50;3.17;;;8.30;99.90;;;;;;5023557;28;20167;-88
2022/11/06 08:51:31;;;;;;;3.50;3.20;;;8.30;99.90;;;;;;5036631;28;20176;-87
2022/11/06 08:53:58;;;;;;;2.87;2.70;;;8.30;99.90;;;;;;5036505;28;20168;-88
2022/11/06 08:56:24;;;;;;;3.17;2.70;;;8.40;99.90;;;;;;5019037;28;20216;-88
2022/11/06 08:58:51;;;;;;;2.93;2.73;;;8.40;99.90;;;;;;5038332;28;20639;-87
2022/11/06 09:01:17;;;;;;;3.33;2.93;;;8.50;99.90;;;;;;5018138;28;20215;-87
2022/11/06 09:03:49;;;;;;;2.80;2.60;;;8.50;99.90;;;;;;5037547;28;20173;-91
2022/11/06 09:06:17;;;;;;;3.27;3.00;;;8.60;99.90;;;;;;5016790;28;20282;-85
2022/11/06 09:08:43;;;;;;;3.17;2.93;;;8.60;99.90;;;;;;5035861;28;20177;-85
2022/11/06 09:11:10;;;;;;;2.60;2.40;;;8.70;99.90;;;;;;5034182;28;20191;-85
2022/11/06 09:13:37;;;;;;;2.90;2.67;;;8.80;99.90;;;;;;5041871;28;20205;-90
2022/11/06 09:16:13;;;;;;;2.83;2.63;;;8.80;99.90;;;;;;5031668;28;20574;-90
2022/11/06 09:18:39;;;;;;;2.40;2.30;;;8.80;99.90;;;;;;5029267;28;20208;-92
2022/11/06 09:21:06;;;;;;;2.60;2.50;;;9.00;99.90;;;;;;5031074;28;20231;-93
2022/11/06 09:23:42;;;;;;;2.50;2.40;;;9.10;99.90;;;;;;5042007;28;20261;-96
2022/11/06 09:26:09;;;;;;;2.67;2.57;;;9.10;99.90;;;;;;5045149;28;20188;-92
2022/11/06 09:28:35;;;;;;;3.30;2.47;;;9.10;99.90;;;;;;5049405;28;20190;-91
2022/11/06 09:31:01;;;;;;;2.33;2.23;;;9.20;99.90;;;;;;5022384;28;20516;-90
2022/11/06 09:33:28;;;;;;;2.73;2.53;;;9.20;99.90;;;;;;5017659;28;20223;-89
2022/11/06 09:35:54;;;;;;;2.23;2.13;;;9.30;99.90;;;;;;5037542;28;20644;-95
2022/11/06 09:38:21;;;;;;;2.37;2.27;;;9.40;99.90;;;;;;5022547;28;20188;-92
2022/11/06 09:40:51;;;;;;;3.90;2.70;;;9.40;99.90;;;;;;5036727;28;20567;-87
2022/11/06 09:43:27;;;;;;;2.50;2.40;;;9.50;99.90;;;;;;5035375;28;20214;-91
2022/11/06 09:45:57;;;;;;;2.43;2.33;;;9.60;99.90;;;;;;5021747;28;20193;-91
2022/11/06 09:48:28;;;;;;;2.33;2.23;;;9.70;99.90;;;;;;5019015;28;20647;-93
2022/11/06 09:51:16;;;;;;;2.40;2.30;;;9.70;99.90;;;;;;5019865;28;20184;-92
2022/11/06 09:53:54;;;;;;;2.27;2.17;;;9.80;99.90;;;;;;5038629;28;20204;-87
2022/11/06 09:56:25;;;;;;;2.83;2.63;;;9.80;99.90;;;;;;5019550;28;20571;-87
2022/11/06 09:58:54;;;;;;;1.90;1.80;;;9.90;99.90;;;;;;5034054;28;20179;-88
2022/11/06 10:01:23;;;;;;;2.70;2.50;;;9.90;99.90;;;;;;5038100;28;20165;-90
2022/11/06 10:04:01;;;;;;;2.57;2.47;;;10.00;99.90;;;;;;5025049;28;20635;-87
2022/11/06 10:06:28;;;;;;;3.00;2.70;;;10.00;99.90;;;;;;5036051;28;20254;-94
2022/11/06 10:09:00;;;;;;;2.87;2.77;;;10.10;99.90;;;;;;5027760;28;20230;-96
2022/11/06 10:11:51;;;;;;;2.60;2.50;;;10.20;99.90;;;;;;5023532;28;20622;-95
2022/11/06 10:14:25;;;;;;;3.20;2.90;;;10.20;99.90;;;;;;5037114;28;20173;-91
2022/11/06 10:17:07;;;;;;;3.00;2.80;;;10.30;99.90;;;;;;5020659;28;20540;-91
2022/11/06 10:19:49;;;;;;;2.80;2.60;;;10.30;99.90;;;;;;5018910;28;20365;-89
2022/11/06 10:22:39;;;;;;;2.70;2.50;;;10.30;99.90;;;;;;5035870;28;20173;-91
2022/11/06 10:25:19;;;;;;;2.97;2.77;;;10.40;99.90;;;;;;5019621;28;20176;-90
2022/11/06 10:27:56;;;;;;;2.80;2.70;;;10.40;99.90;;;;;;5036470;28;20519;-93
2022/11/06 10:30:22;;;;;;;2.33;2.20;;;10.50;99.90;;;;;;5037074;28;20274;-91
2022/11/06 10:33:06;;;;;;;6.33;3.17;;;10.50;99.90;;;;;;5035684;28;20205;-89
2022/11/06 10:35:56;;;;;;;6.40;4.80;;;10.60;99.90;;;;;;5041256;28;20190;-89
2022/11/06 10:38:24;;;;;;;71.23;27.63;;;10.80;99.90;;;;;;5035339;28;20171;-87
2022/11/06 10:40:52;;;;;;;11.27;5.93;;;11.00;99.90;;;;;;5034195;28;20184;-84
2022/11/06 10:43:32;;;;;;;13.60;6.97;;;11.30;99.90;;;;;;5038114;28;20186;-93
2022/11/06 10:46:28;;;;;;;4.40;3.47;;;11.30;99.90;;;;;;5047002;28;20173;-91
2022/11/06 10:49:03;;;;;;;3.13;2.83;;;11.20;99.90;;;;;;5052746;28;20201;-92
2022/11/06 10:52:03;;;;;;;2.50;2.40;;;11.20;99.90;;;;;;5031499;28;20182;-90
2022/11/06 10:54:47;;;;;;;3.00;2.80;;;11.30;99.90;;;;;;5054793;28;20169;-85
2022/11/06 10:57:27;;;;;;;3.53;2.10;;;11.30;99.90;;;;;;5054375;28;20191;-89
2022/11/06 10:59:54;;;;;;;2.80;2.60;;;11.30;99.90;;;;;;5031062;28;20263;-89
2022/11/06 11:02:35;;;;;;;3.10;2.80;;;11.20;99.90;;;;;;5029275;28;20183;-80
2022/11/06 11:05:01;;;;;;;3.90;2.93;;;11.30;99.90;;;;;;5036532;28;20219;-78
2022/11/06 11:07:33;;;;;;;2.33;2.20;;;11.40;99.90;;;;;;5018955;28;20207;-79
2022/11/06 11:10:19;;;;;;;2.30;2.20;;;11.40;99.90;;;;;;5016562;28;20665;-82
2022/11/06 11:12:45;;;;;;;1.80;1.70;;;11.40;99.90;;;;;;5036186;28;20208;-81
2022/11/06 11:15:13;;;;;;;1.90;1.80;;;11.50;99.90;;;;;;5033886;28;20199;-77
2022/11/06 11:17:40;;;;;;;2.00;1.90;;;11.50;99.90;;;;;;5035898;28;20530;-80
2022/11/06 11:20:32;;;;;;;1.90;1.80;;;11.50;99.90;;;;;;5017833;28;20183;-82
2022/11/06 11:23:31;;;;;;;1.90;1.80;;;11.50;99.90;;;;;;5033842;28;20180;-81
2022/11/06 11:26:17;;;;;;;1.90;1.80;;;11.50;99.90;;;;;;4962811;28;20221;-77
2022/11/06 11:28:53;;;;;;;2.10;2.00;;;11.60;99.90;;;;;;4974175;28;20650;-84
2022/11/06 11:31:26;;;;;;;1.87;1.73;;;11.60;99.90;;;;;;4971411;28;20197;-80
2022/11/06 11:33:55;;;;;;;1.90;1.80;;;11.70;99.90;;;;;;4973714;28;20200;-82
2022/11/06 11:36:23;;;;;;;2.00;1.90;;;11.70;99.90;;;;;;4974383;28;20189;-84
2022/11/06 11:38:50;;;;;;;1.90;1.80;;;11.90;99.90;;;;;;4973223;28;20184;-85
2022/11/06 11:41:19;;;;;;;1.97;1.87;;;12.00;99.90;;;;;;4975297;28;20186;-83
2022/11/06 11:44:14;;;;;;;1.83;1.67;;;11.90;99.90;;;;;;4975614;28;20273;-81
2022/11/06 11:46:50;;;;;;;1.80;1.70;;;12.00;99.90;;;;;;4956963;29;20168;-83
2022/11/06 11:49:38;;;;;;;1.80;1.70;;;11.90;99.90;;;;;;4955826;29;20190;-82
2022/11/06 11:52:12;;;;;;;1.80;1.70;;;11.90;99.90;;;;;;4968727;28;20216;-83
2022/11/06 11:54:39;;;;;;;1.90;1.80;;;11.90;99.90;;;;;;4959010;28;20549;-81
2022/11/06 11:57:16;;;;;;;1.60;1.50;;;11.90;99.90;;;;;;4974104;28;20559;-81
2022/11/06 11:59:46;;;;;;;1.83;1.73;;;11.90;99.90;;;;;;4974346;28;20166;-81
2022/11/06 12:02:25;;;;;;;2.00;1.90;;;12.00;99.90;;;;;;5007141;28;20185;-81
2022/11/06 12:04:58;;;;;;;2.30;1.70;;;12.00;99.90;;;;;;5026646;28;20182;-83
2022/11/06 12:07:28;;;;;;;1.80;1.70;;;12.00;99.90;;;;;;5035282;28;20161;-81
2022/11/06 12:09:54;;;;;;;1.47;1.47;;;12.00;99.90;;;;;;5031812;28;20643;-81
2022/11/06 12:12:46;;;;;;;1.80;1.70;;;12.10;99.90;;;;;;5034303;28;20854;-81
2022/11/06 12:15:38;;;;;;;2.00;1.90;;;12.00;99.90;;;;;;5033963;28;20165;-81
2022/11/06 12:18:10;;;;;;;1.83;1.73;;;12.00;99.90;;;;;;5033852;28;20540;-81
2022/11/06 12:20:41;;;;;;;1.90;1.80;;;12.10;99.90;;;;;;5035181;28;20160;-80
2022/11/06 12:23:26;;;;;;;1.57;1.57;;;12.10;99.90;;;;;;5035376;28;20173;-81
2022/11/06 12:26:05;;;;;;;1.33;1.33;;;12.10;99.90;;;;;;5033933;28;20191;-81
2022/11/06 12:28:34;;;;;;;1.13;1.13;;;12.20;99.90;;;;;;5035178;28;20175;-82
2022/11/06 12:31:18;;;;;;;1.60;1.50;;;12.20;99.70;;;;;;5034038;28;20184;-81
2022/11/06 12:33:51;;;;;;;1.60;1.60;;;12.20;99.80;;;;;;5017377;28;20238;-80
2022/11/06 12:36:19;;;;;;;1.47;1.37;;;12.20;99.80;;;;;;5032604;28;20177;-80
2022/11/06 12:38:53;;;;;;;1.43;1.33;;;12.20;99.50;;;;;;5035690;28;20570;-81
2022/11/06 12:41:31;;;;;;;1.40;1.30;;;12.30;99.30;;;;;;5035539;28;20519;-81
2022/11/06 12:43:58;;;;;;;1.87;1.77;;;12.30;99.90;;;;;;5033818;28;20218;-80
2022/11/06 12:46:55;;;;;;;1.83;1.60;;;12.30;99.90;;;;;;5028890;28;20215;-81
2022/11/06 12:49:51;;;;;;;1.87;1.77;;;12.20;99.90;;;;;;5033929;28;20188;-81
2022/11/06 12:52:59;;;;;;;1.73;1.63;;;12.20;99.90;;;;;;5032176;28;20200;-80
2022/11/06 12:55:36;;;;;;;2.03;1.73;;;12.30;99.90;;;;;;4933806;29;20194;-80
2022/11/06 12:58:11;;;;;;;1.47;1.40;;;12.20;99.90;;;;;;4935011;29;20652;-81
2022/11/06 13:00:57;;;;;;;2.80;1.50;;;12.20;99.90;;;;;;4933730;29;20207;-80
2022/11/06 13:03:23;;;;;;;1.60;1.60;;;12.10;99.90;;;;;;4904872;29;20714;-80
2022/11/06 13:06:00;;;;;;;1.50;1.50;;;12.20;99.90;;;;;;4934855;29;20200;-80
2022/11/06 13:08:47;;;;;;;1.70;1.60;;;12.10;99.90;;;;;;4934217;29;20255;-83
2022/11/06 13:11:20;;;;;;;1.40;1.40;;;12.00;99.90;;;;;;4934877;29;20202;-82
2022/11/06 13:14:01;;;;;;;1.43;1.43;;;12.10;99.90;;;;;;4918606;29;20322;-81
2022/11/06 13:16:29;;;;;;;1.53;1.50;;;12.10;99.90;;;;;;4934887;29;20182;-82
2022/11/06 13:19:33;;;;;;;1.40;1.40;;;12.10;99.90;;;;;;4935042;29;20211;-81
2022/11/06 13:22:10;;;;;;;1.50;1.50;;;12.00;99.90;;;;;;4935324;29;20167;-83
2022/11/06 13:24:47;;;;;;;1.27;1.27;;;12.00;99.90;;;;;;4934281;29;20662;-84
2022/11/06 13:27:37;;;;;;;1.53;1.43;;;12.00;99.90;;;;;;4931903;29;20190;-82
2022/11/06 13:30:25;;;;;;;1.60;1.50;;;12.00;99.90;;;;;;4948621;28;20227;-80
2022/11/06 13:33:01;;;;;;;1.97;1.87;;;12.10;99.90;;;;;;5025430;28;20231;-83
2022/11/06 13:35:27;;;;;;;1.67;1.67;;;12.00;99.90;;;;;;5014631;28;20260;-82